createdAt,value
2023-03-27T00:01:14.919Z,100457.91
2023-03-27T00:03:42.732Z,100464.56
2023-03-27T00:06:16.806Z,100481.09
2023-03-27T00:08:44.638Z,100474.09
2023-03-27T00:11:11.780Z,100488.34
2023-03-27T00:13:49.551Z,100494.78
2023-03-27T00:16:21.887Z,100505.00
2023-03-27T00:18:48.714Z,100506.00
2023-03-27T00:21:15.255Z,100521.84
2023-03-27T00:23:42.349Z,100532.50
2023-03-27T00:26:08.941Z,100538.72
2023-03-27T00:28:36.343Z,100545.97
2023-03-27T00:31:02.968Z,100546.75
2023-03-27T00:33:29.443Z,100549.19
2023-03-27T00:35:56.073Z,100547.41
2023-03-27T00:38:22.856Z,100553.63
2023-03-27T00:40:50.877Z,100562.38
2023-03-27T00:43:21.116Z,100564.00
2023-03-27T00:45:49.071Z,100567.09
2023-03-27T00:48:15.873Z,100571.25
2023-03-27T00:50:44.285Z,100578.59
2023-03-27T00:53:15.983Z,100571.81
2023-03-27T00:55:47.112Z,100578.69
2023-03-27T00:58:19.731Z,100580.09
2023-03-27T01:00:49.415Z,100592.03
2023-03-27T01:03:16.359Z,100583.38
2023-03-27T01:05:43.385Z,100597.22
2023-03-27T01:08:11.615Z,100598.63
2023-03-27T01:10:52.983Z,100596.28
2023-03-27T01:13:29.594Z,100603.13
2023-03-27T01:16:11.781Z,100610.16
2023-03-27T01:18:53.405Z,100608.16
2023-03-27T01:21:51.928Z,100615.88
2023-03-27T01:24:52.311Z,100631.75
2023-03-27T01:27:58.482Z,100625.16
2023-03-27T01:31:22.095Z,100640.19
2023-03-27T01:34:10.259Z,100644.59
2023-03-27T01:36:58.956Z,100643.97
2023-03-27T01:39:34.634Z,100653.16
2023-03-27T01:42:10.478Z,100663.22
2023-03-27T01:44:59.893Z,100664.44
2023-03-27T01:47:39.464Z,100670.91
2023-03-27T01:50:13.653Z,100674.66
2023-03-27T01:52:43.102Z,100669.22
2023-03-27T01:55:15.856Z,100682.84
2023-03-27T01:57:50.155Z,100682.34
2023-03-27T02:00:22.331Z,100686.09
2023-03-27T02:03:08.364Z,100692.94
2023-03-27T02:05:42.465Z,100697.38
2023-03-27T02:08:18.844Z,100700.31
2023-03-27T02:10:51.715Z,100698.75
2023-03-27T02:13:26.165Z,100701.50
2023-03-27T02:15:56.517Z,100714.28
2023-03-27T02:18:31.458Z,100723.50
2023-03-27T02:20:58.099Z,100732.03
2023-03-27T02:23:24.589Z,100724.53
2023-03-27T02:25:52.005Z,100734.41
2023-03-27T02:28:29.280Z,100734.41
2023-03-27T02:31:32.935Z,100733.34
2023-03-27T02:34:18.416Z,100737.97
2023-03-27T02:37:02.171Z,100749.38
2023-03-27T02:39:53.918Z,100751.78
2023-03-27T02:42:38.028Z,100757.22
2023-03-27T02:45:24.000Z,100763.03
2023-03-27T02:48:35.600Z,100771.91
2023-03-27T02:51:08.821Z,100774.63
2023-03-27T02:53:42.881Z,100785.06
2023-03-27T02:56:11.932Z,100795.81
2023-03-27T02:58:50.349Z,100795.69
2023-03-27T03:01:19.693Z,100805.38
2023-03-27T03:03:54.962Z,100808.47
2023-03-27T03:06:29.598Z,100810.03
2023-03-27T03:09:05.976Z,100818.38
2023-03-27T03:11:46.202Z,100821.44
2023-03-27T03:14:13.301Z,100822.47
2023-03-27T03:16:40.286Z,100828.75
2023-03-27T03:19:06.735Z,100834.06
2023-03-27T03:21:33.126Z,100838.81
2023-03-27T03:24:00.086Z,100846.66
2023-03-27T03:26:27.146Z,100855.69
2023-03-27T03:29:00.449Z,100859.25
2023-03-27T03:31:42.911Z,100871.00
2023-03-27T03:34:18.297Z,100873.91
2023-03-27T03:36:49.059Z,100871.19
2023-03-27T03:39:17.338Z,100867.09
2023-03-27T03:41:43.821Z,100872.53
2023-03-27T03:44:10.515Z,100876.28
2023-03-27T03:46:37.161Z,100885.47
2023-03-27T03:49:04.886Z,100890.56
2023-03-27T03:51:32.055Z,100901.81
2023-03-27T03:53:58.547Z,100898.06
2023-03-27T03:56:26.128Z,100899.94
2023-03-27T03:58:52.599Z,100907.78
2023-03-27T04:01:20.587Z,100903.19
2023-03-27T04:03:48.218Z,100911.53
2023-03-27T04:06:17.565Z,100912.03
2023-03-27T04:08:47.759Z,100913.41
2023-03-27T04:11:14.223Z,100925.66
2023-03-27T04:13:40.687Z,100930.59
2023-03-27T04:16:08.128Z,100947.59
2023-03-27T04:18:35.322Z,100953.19
2023-03-27T04:21:03.026Z,100945.03
2023-03-27T04:23:32.171Z,100954.91
2023-03-27T04:26:00.206Z,100956.59
2023-03-27T04:28:30.258Z,100964.06
2023-03-27T04:30:58.290Z,100968.69
2023-03-27T04:33:25.845Z,100972.25
2023-03-27T04:36:06.031Z,100975.16
2023-03-27T04:38:39.149Z,100980.75
2023-03-27T04:41:06.106Z,100987.22
2023-03-27T04:43:36.520Z,100982.28
2023-03-27T04:46:05.871Z,100988.88
2023-03-27T04:48:32.748Z,101005.22
2023-03-27T04:50:59.365Z,101006.94
2023-03-27T04:53:31.097Z,101015.28
2023-03-27T04:55:57.673Z,101010.66
2023-03-27T04:58:25.766Z,101005.22
2023-03-27T05:00:55.655Z,101006.25
2023-03-27T05:03:24.011Z,101008.13
2023-03-27T05:05:50.601Z,101021.03
2023-03-27T05:08:17.657Z,101023.06
2023-03-27T05:10:45.206Z,101035.97
2023-03-27T05:13:12.268Z,101032.72
2023-03-27T05:15:39.026Z,101037.84
2023-03-27T05:18:07.245Z,101030.00
2023-03-27T05:20:35.019Z,101043.22
2023-03-27T05:23:01.506Z,101052.41
2023-03-27T05:25:29.146Z,101052.72
2023-03-27T05:27:55.611Z,101053.06
2023-03-27T05:30:23.941Z,101069.38
2023-03-27T05:32:52.086Z,101071.25
2023-03-27T05:35:22.353Z,101071.41
2023-03-27T05:37:53.474Z,101077.88
2023-03-27T05:40:22.641Z,101084.47
2023-03-27T05:42:51.166Z,101078.34
2023-03-27T05:45:18.400Z,101085.84
2023-03-27T05:47:48.367Z,101091.41
2023-03-27T05:50:15.899Z,101087.84
2023-03-27T05:52:42.764Z,101092.75
2023-03-27T05:55:10.382Z,101098.19
2023-03-27T05:57:38.692Z,101099.19
2023-03-27T06:00:11.892Z,101101.22
2023-03-27T06:02:39.174Z,101109.53
2023-03-27T06:05:16.536Z,101118.56
2023-03-27T06:07:43.851Z,101124.19
2023-03-27T06:10:14.098Z,101125.84
2023-03-27T06:12:41.843Z,101131.16
2023-03-27T06:15:09.993Z,101136.41
2023-03-27T06:17:39.489Z,101141.56
2023-03-27T06:20:15.036Z,101139.53
2023-03-27T06:22:48.070Z,101161.50
2023-03-27T06:25:15.948Z,101172.03
2023-03-27T06:27:43.390Z,101168.53
2023-03-27T06:30:11.270Z,101180.19
2023-03-27T06:32:43.541Z,101176.34
2023-03-27T06:35:10.222Z,101178.06
2023-03-27T06:37:36.898Z,101176.13
2023-03-27T06:40:09.357Z,101176.84
2023-03-27T06:42:36.994Z,101182.16
2023-03-27T06:45:04.839Z,101180.00
2023-03-27T06:47:33.161Z,101180.41
2023-03-27T06:50:02.913Z,101187.22
2023-03-27T06:52:29.457Z,101189.66
2023-03-27T06:54:55.891Z,101181.00
2023-03-27T06:57:22.332Z,101188.34
2023-03-27T06:59:48.875Z,101190.41
2023-03-27T07:02:15.331Z,101188.72
2023-03-27T07:04:48.255Z,101193.16
2023-03-27T07:07:20.896Z,101198.97
2023-03-27T07:09:47.606Z,101193.69
2023-03-27T07:12:14.036Z,101193.31
2023-03-27T07:14:40.670Z,101201.00
2023-03-27T07:17:09.209Z,101199.78
2023-03-27T07:19:36.213Z,101191.09
2023-03-27T07:22:02.656Z,101204.75
2023-03-27T07:24:29.073Z,101215.81
2023-03-27T07:26:56.329Z,101204.75
2023-03-27T07:29:22.799Z,101212.59
2023-03-27T07:31:56.633Z,101213.09
2023-03-27T07:34:25.482Z,101224.53
2023-03-27T07:36:51.931Z,101225.03
2023-03-27T07:39:18.322Z,101229.28
2023-03-27T07:41:44.758Z,101232.38
2023-03-27T07:44:11.194Z,101241.91
2023-03-27T07:46:37.681Z,101226.59
2023-03-27T07:49:04.832Z,101248.44
2023-03-27T07:51:31.317Z,101251.84
2023-03-27T07:54:04.000Z,101261.38
2023-03-27T07:56:34.007Z,101258.31
2023-03-27T07:59:01.547Z,101263.97
2023-03-27T08:01:28.092Z,101265.84
2023-03-27T08:03:54.763Z,101271.44
2023-03-27T08:06:21.424Z,101274.53
2023-03-27T08:08:47.875Z,101263.78
2023-03-27T08:11:23.543Z,101283.41
2023-03-27T08:13:54.192Z,101285.97
2023-03-27T08:16:21.544Z,101290.25
2023-03-27T08:18:49.678Z,101280.84
2023-03-27T08:21:16.552Z,101286.31
2023-03-27T08:23:42.934Z,101283.59
2023-03-27T08:26:09.614Z,101284.59
2023-03-27T08:28:37.226Z,101287.50
2023-03-27T08:31:12.674Z,101291.75
2023-03-27T08:33:39.690Z,101288.69
2023-03-27T08:36:08.118Z,101289.38
2023-03-27T08:38:39.222Z,101301.34
2023-03-27T08:41:06.762Z,101305.78
2023-03-27T08:43:42.633Z,101297.88
2023-03-27T08:46:19.942Z,101302.25
2023-03-27T08:48:58.988Z,101305.97
2023-03-27T08:51:57.748Z,101301.97
2023-03-27T08:54:32.510Z,101301.72
2023-03-27T08:56:59.642Z,101305.41
2023-03-27T08:59:28.365Z,101303.97
2023-03-27T09:01:57.501Z,101309.72
2023-03-27T09:04:27.122Z,101310.13
2023-03-27T09:07:31.516Z,101315.75
2023-03-27T09:10:07.548Z,101309.69
2023-03-27T09:12:50.631Z,101311.97
2023-03-27T09:15:22.738Z,101313.00
2023-03-27T09:17:55.070Z,101309.97
2023-03-27T09:20:28.569Z,101311.66
2023-03-27T09:23:05.513Z,101315.81
2023-03-27T09:25:37.993Z,101330.16
2023-03-27T09:28:15.737Z,101323.00
2023-03-27T09:30:42.447Z,101329.78
2023-03-27T09:33:11.878Z,101327.25
2023-03-27T09:35:39.503Z,101330.66
2023-03-27T09:38:24.132Z,101317.53
2023-03-27T09:41:06.288Z,101322.47
2023-03-27T09:43:51.233Z,101318.91
2023-03-27T09:46:21.449Z,101331.50
2023-03-27T09:49:12.655Z,101330.16
2023-03-27T09:51:43.629Z,101328.34
2023-03-27T09:54:14.518Z,101324.88
2023-03-27T09:56:51.794Z,101325.53
2023-03-27T09:59:26.873Z,101327.75
2023-03-27T10:02:16.834Z,101327.41
2023-03-27T10:05:00.735Z,101332.47
2023-03-27T10:07:27.803Z,101315.31
2023-03-27T10:10:13.868Z,101320.09
2023-03-27T10:12:41.480Z,101324.06
2023-03-27T10:15:36.945Z,101328.78
2023-03-27T10:18:24.732Z,101334.31
2023-03-27T10:20:53.499Z,101384.38
2023-03-27T10:23:39.865Z,101397.84
2023-03-27T10:26:09.426Z,101397.97
2023-03-27T10:28:38.897Z,101406.09
2023-03-27T10:31:11.070Z,101408.34
2023-03-27T10:33:40.689Z,101408.34
2023-03-27T10:36:10.027Z,101406.22
2023-03-27T10:38:39.090Z,101410.66
2023-03-27T10:41:13.347Z,101399.69
2023-03-27T10:43:46.043Z,101408.47
2023-03-27T10:46:16.904Z,101398.22
2023-03-27T10:48:49.307Z,101378.09
2023-03-27T10:51:46.124Z,101380.22
2023-03-27T10:54:32.806Z,101370.03
2023-03-27T10:57:10.038Z,101376.31
2023-03-27T11:00:03.344Z,101362.59
2023-03-27T11:02:40.146Z,101362.75
2023-03-27T11:05:36.650Z,101366.44
2023-03-27T11:08:13.132Z,101362.94
2023-03-27T11:10:45.327Z,101358.34
2023-03-27T11:13:32.419Z,101356.66
2023-03-27T11:16:27.167Z,101365.50
2023-03-27T11:19:04.904Z,101368.56
2023-03-27T11:21:42.135Z,101388.06
2023-03-27T11:24:22.587Z,101388.06
2023-03-27T11:27:04.182Z,101374.75
2023-03-27T11:29:36.934Z,101387.50
2023-03-27T11:32:19.619Z,101386.41
2023-03-27T11:34:57.588Z,101378.34
2023-03-27T11:37:43.036Z,101376.84
2023-03-27T11:40:17.038Z,101378.28
2023-03-27T11:42:45.602Z,101364.81
2023-03-27T11:45:21.013Z,101370.22
2023-03-27T11:47:50.398Z,101367.47
2023-03-27T11:50:26.034Z,101361.41
2023-03-27T11:53:11.598Z,101373.22
2023-03-27T11:55:49.168Z,101367.75
2023-03-27T11:58:27.067Z,101387.44
2023-03-27T12:01:26.977Z,101391.69
2023-03-27T12:04:11.835Z,101381.00
2023-03-27T12:07:12.237Z,101373.56
2023-03-27T12:09:59.661Z,101364.16
2023-03-27T12:13:00.720Z,101374.09
2023-03-27T12:15:46.630Z,101376.22
2023-03-27T12:18:45.272Z,101371.63
2023-03-27T12:21:25.444Z,101343.28
2023-03-27T12:24:04.543Z,101365.84
2023-03-27T12:27:12.528Z,101358.03
2023-03-27T12:29:53.588Z,101363.75
2023-03-27T12:32:55.654Z,101396.91
2023-03-27T12:35:26.978Z,101369.50
2023-03-27T12:38:03.144Z,101419.88
2023-03-27T12:40:41.861Z,101415.56
2023-03-27T12:43:39.440Z,101421.38
2023-03-27T12:46:14.485Z,101406.56
2023-03-27T12:49:00.669Z,101402.50
2023-03-27T12:51:53.572Z,101401.03
2023-03-27T12:54:28.770Z,101386.78
2023-03-27T12:57:22.142Z,101390.91
2023-03-27T12:59:48.691Z,101361.19
2023-03-27T13:02:15.826Z,101358.84
2023-03-27T13:04:57.307Z,101364.59
2023-03-27T13:07:30.139Z,101367.97
2023-03-27T13:10:24.920Z,101353.97
2023-03-27T13:13:28.808Z,101387.31
2023-03-27T13:16:01.190Z,101391.25
2023-03-27T13:18:51.725Z,101418.31
2023-03-27T13:21:31.135Z,101446.69
2023-03-27T13:24:18.300Z,101459.78
2023-03-27T13:26:56.448Z,101461.53
2023-03-27T13:29:31.080Z,101467.94
2023-03-27T13:32:19.859Z,101477.97
2023-03-27T13:35:04.845Z,101478.78
2023-03-27T13:37:36.709Z,101497.00
2023-03-27T13:40:40.504Z,101495.06
2023-03-27T13:43:12.149Z,101487.69
2023-03-27T13:45:48.706Z,101486.38
2023-03-27T13:48:40.304Z,101481.94
2023-03-27T13:51:37.860Z,101476.47
2023-03-27T13:54:44.598Z,101478.31
2023-03-27T13:57:46.939Z,101467.91
2023-03-27T14:00:37.974Z,101468.34
2023-03-27T14:03:14.963Z,101470.25
2023-03-27T14:05:58.512Z,101471.81
2023-03-27T14:08:43.187Z,101461.03
2023-03-27T14:11:15.920Z,101463.38
2023-03-27T14:14:16.477Z,101463.25
2023-03-27T14:17:21.736Z,101470.75
2023-03-27T14:20:27.468Z,101465.66
2023-03-27T14:22:57.384Z,101458.19
2023-03-27T14:25:30.382Z,101449.38
2023-03-27T14:27:57.333Z,101454.22
2023-03-27T14:30:30.308Z,101451.44
2023-03-27T14:33:03.872Z,101438.47
2023-03-27T14:35:39.580Z,101449.16
2023-03-27T14:38:21.928Z,101465.75
2023-03-27T14:40:50.325Z,101468.13
2023-03-27T14:43:18.921Z,101490.13
2023-03-27T14:45:46.278Z,101510.38
2023-03-27T14:48:22.898Z,101533.59
2023-03-27T14:50:54.049Z,101549.50
2023-03-27T14:53:28.543Z,101562.66
2023-03-27T14:55:56.291Z,101574.84
2023-03-27T14:58:25.054Z,101561.78
2023-03-27T15:00:58.163Z,101539.41
2023-03-27T15:03:29.999Z,101532.56
2023-03-27T15:06:05.790Z,101534.28
2023-03-27T15:08:37.221Z,101520.31
2023-03-27T15:11:10.990Z,101516.78
2023-03-27T15:13:37.614Z,101513.19
2023-03-27T15:16:06.645Z,101512.25
2023-03-27T15:18:49.266Z,101505.38
2023-03-27T15:21:21.674Z,101502.69
2023-03-27T15:24:29.894Z,101497.09
2023-03-27T15:26:56.766Z,101484.03
2023-03-27T15:29:50.160Z,101477.09
2023-03-27T15:32:22.044Z,101482.72
2023-03-27T15:34:56.678Z,101470.78
2023-03-27T15:37:25.474Z,101468.63
2023-03-27T15:40:00.416Z,101452.88
2023-03-27T15:42:43.734Z,101462.91
2023-03-27T15:45:11.147Z,101456.91
2023-03-27T15:47:37.746Z,101448.81
2023-03-27T15:50:23.942Z,101459.53
2023-03-27T15:52:52.598Z,101459.88
2023-03-27T15:55:41.544Z,101485.47
2023-03-27T15:58:32.987Z,101485.19
2023-03-27T16:01:01.910Z,101498.03
2023-03-27T16:03:32.584Z,101513.53
2023-03-27T16:06:00.534Z,101519.84
2023-03-27T16:08:37.739Z,101517.88
2023-03-27T16:11:06.375Z,101530.59
2023-03-27T16:13:42.465Z,101529.22
2023-03-27T16:16:26.056Z,101536.47
2023-03-27T16:18:53.212Z,101546.28
2023-03-27T16:21:24.776Z,101553.91
2023-03-27T16:23:51.516Z,101572.56
2023-03-27T16:26:31.614Z,101569.22
2023-03-27T16:29:01.984Z,101579.53
2023-03-27T16:31:28.691Z,101575.34
2023-03-27T16:33:55.275Z,101561.31
2023-03-27T16:36:29.670Z,101579.31
2023-03-27T16:38:56.621Z,101570.47
2023-03-27T16:41:23.233Z,101565.91
2023-03-27T16:43:49.793Z,101567.16
2023-03-27T16:46:34.090Z,101564.41
2023-03-27T16:49:00.832Z,101566.75
2023-03-27T16:51:28.770Z,101577.13
2023-03-27T16:53:55.794Z,101578.78
2023-03-27T16:56:22.347Z,101585.41
2023-03-27T16:58:48.908Z,101583.34
2023-03-27T17:01:15.587Z,101614.66
2023-03-27T17:03:42.310Z,101632.47
2023-03-27T17:06:11.446Z,101696.69
2023-03-27T17:08:38.087Z,101659.81
2023-03-27T17:11:07.582Z,101677.38
2023-03-27T17:13:34.242Z,101638.94
2023-03-27T17:16:00.846Z,101640.19
2023-03-27T17:18:27.658Z,101642.78
2023-03-27T17:20:54.142Z,101638.28
2023-03-27T17:23:20.940Z,101645.94
2023-03-27T17:25:48.284Z,101646.03
2023-03-27T17:28:14.990Z,101649.38
2023-03-27T17:30:52.748Z,101652.94
2023-03-27T17:33:28.504Z,101658.25
2023-03-27T17:35:56.615Z,101665.13
2023-03-27T17:38:24.077Z,101669.28
2023-03-27T17:40:51.136Z,101671.06
2023-03-27T17:43:17.672Z,101666.81
2023-03-27T17:45:44.301Z,101668.19
2023-03-27T17:48:11.380Z,101668.41
2023-03-27T17:50:38.784Z,101677.31
2023-03-27T17:53:05.327Z,101682.44
2023-03-27T17:55:31.860Z,101681.25
2023-03-27T17:58:08.840Z,101689.13
2023-03-27T18:00:37.432Z,101687.75
2023-03-27T18:03:04.505Z,101689.44
2023-03-27T18:05:34.864Z,101697.44
2023-03-27T18:08:01.222Z,101699.63
2023-03-27T18:10:27.617Z,101702.66
2023-03-27T18:12:54.042Z,101707.56
2023-03-27T18:15:20.887Z,101710.91
2023-03-27T18:17:47.422Z,101712.41
2023-03-27T18:20:13.921Z,101713.13
2023-03-27T18:22:40.562Z,101718.00
2023-03-27T18:25:08.910Z,101717.72
2023-03-27T18:27:44.694Z,101724.16
2023-03-27T18:30:14.552Z,101730.88
2023-03-27T18:32:43.086Z,101725.66
2023-03-27T18:35:13.864Z,101722.31
2023-03-27T18:37:41.761Z,101717.78
2023-03-27T18:40:11.209Z,101719.59
2023-03-27T18:42:40.172Z,101724.41
2023-03-27T18:45:08.454Z,101726.50
2023-03-27T18:47:36.172Z,101727.59
2023-03-27T18:50:05.029Z,101727.78
2023-03-27T18:52:31.663Z,101736.72
2023-03-27T18:54:58.073Z,101739.34
2023-03-27T18:57:24.851Z,101740.97
2023-03-27T18:59:51.994Z,101747.03
2023-03-27T19:02:18.433Z,101743.03
2023-03-27T19:04:45.592Z,101743.47
2023-03-27T19:07:11.981Z,101747.81
2023-03-27T19:09:41.653Z,101755.88
2023-03-27T19:12:09.249Z,101764.50
2023-03-27T19:14:36.546Z,101764.22
2023-03-27T19:17:04.017Z,101762.81
2023-03-27T19:19:33.695Z,101772.28
2023-03-27T19:22:00.138Z,101773.69
2023-03-27T19:24:26.569Z,101778.88
2023-03-27T19:26:53.078Z,101779.16
2023-03-27T19:29:20.200Z,101781.47
2023-03-27T19:31:46.590Z,101783.63
2023-03-27T19:34:13.121Z,101784.03
2023-03-27T19:36:39.558Z,101787.22
2023-03-27T19:39:07.128Z,101786.34
2023-03-27T19:41:33.607Z,101784.06
2023-03-27T19:44:00.569Z,101784.34
2023-03-27T19:48:54.797Z,101789.53
2023-03-27T19:51:21.434Z,101793.53
2023-03-27T19:53:47.891Z,101795.81
2023-03-27T19:56:14.355Z,101800.53
2023-03-27T19:58:40.782Z,101800.66
2023-03-27T20:01:07.360Z,101805.25
2023-03-27T20:03:35.319Z,101808.13
2023-03-27T20:06:06.917Z,101809.25
2023-03-27T20:08:38.029Z,101813.97
2023-03-27T20:11:07.175Z,101817.69
2023-03-27T20:13:42.319Z,101825.84
2023-03-27T20:16:14.214Z,101817.84
2023-03-27T20:18:41.820Z,101830.72
2023-03-27T20:21:09.776Z,101821.84
2023-03-27T20:23:37.621Z,101824.84
2023-03-27T20:26:04.281Z,101827.13
2023-03-27T20:28:30.842Z,101821.97
2023-03-27T20:31:03.232Z,101832.00
2023-03-27T20:33:29.733Z,101833.97
2023-03-27T20:35:56.202Z,101830.53
2023-03-27T20:38:23.224Z,101830.66
2023-03-27T20:40:53.890Z,101831.69
2023-03-27T20:43:23.066Z,101828.13
2023-03-27T20:45:58.766Z,101837.25
2023-03-27T20:48:26.721Z,101833.22
2023-03-27T20:50:53.284Z,101844.38
2023-03-27T20:53:30.344Z,101828.94
2023-03-27T20:56:06.524Z,101831.22
2023-03-27T20:58:35.017Z,101842.09
2023-03-27T21:01:08.963Z,101837.94
2023-03-27T21:03:38.482Z,101842.63
2023-03-27T21:06:10.442Z,101857.50
2023-03-27T21:08:37.584Z,101848.91
2023-03-27T21:11:04.629Z,101848.16
2023-03-27T21:13:31.370Z,101844.75
2023-03-27T21:15:58.559Z,101844.00
2023-03-27T21:18:25.798Z,101850.59
2023-03-27T21:20:52.930Z,101854.28
2023-03-27T21:23:19.889Z,101859.88
2023-03-27T21:25:46.305Z,101855.44
2023-03-27T21:28:13.136Z,101858.44
2023-03-27T21:30:46.358Z,101869.28
2023-03-27T21:33:15.889Z,101859.41
2023-03-27T21:35:45.665Z,101870.28
2023-03-27T21:38:13.248Z,101864.25
2023-03-27T21:40:40.269Z,101872.53
2023-03-27T21:43:08.308Z,101875.53
2023-03-27T21:45:36.008Z,101881.69
2023-03-27T21:48:02.772Z,101889.09
2023-03-27T21:50:29.485Z,101876.50
2023-03-27T21:52:55.937Z,101880.25
2023-03-27T21:55:22.574Z,101884.66
2023-03-27T21:57:49.085Z,101881.94
2023-03-27T22:00:15.902Z,101884.53
2023-03-27T22:02:42.830Z,101877.53
2023-03-27T22:05:09.683Z,101890.09
2023-03-27T22:07:36.619Z,101884.22
2023-03-27T22:10:06.128Z,101885.31
2023-03-27T22:12:36.641Z,101888.03
2023-03-27T22:15:05.832Z,101888.03
2023-03-27T22:17:32.498Z,101894.34
2023-03-27T22:19:59.191Z,101889.06
2023-03-27T22:22:25.970Z,101900.03
2023-03-27T22:24:52.393Z,101891.03
2023-03-27T22:27:18.849Z,101894.75
2023-03-27T22:29:45.228Z,101901.03
2023-03-27T22:32:11.642Z,101912.03
2023-03-27T22:34:38.024Z,101909.72
2023-03-27T22:37:04.444Z,101913.31
2023-03-27T22:39:31.419Z,101912.72
2023-03-27T22:41:58.081Z,101929.00
2023-03-27T22:44:24.634Z,101925.53
2023-03-27T22:46:52.910Z,101918.69
2023-03-27T22:49:19.589Z,101922.66
2023-03-27T22:51:46.059Z,101930.03
2023-03-27T22:54:12.495Z,101930.31
2023-03-27T22:56:38.955Z,101932.31
2023-03-27T22:59:06.113Z,101935.16
2023-03-27T23:01:32.928Z,101939.09
2023-03-27T23:03:59.488Z,101937.53
2023-03-27T23:06:26.293Z,101940.34
2023-03-27T23:08:52.902Z,101947.63
2023-03-27T23:11:20.269Z,101953.06
2023-03-27T23:13:47.167Z,101953.22
2023-03-27T23:16:13.754Z,101955.06
2023-03-27T23:18:40.616Z,101955.06
2023-03-27T23:21:10.053Z,101962.94
2023-03-27T23:23:38.608Z,101962.94
2023-03-27T23:26:06.594Z,101965.66
2023-03-27T23:28:35.645Z,101971.94
2023-03-27T23:31:05.350Z,101972.81
2023-03-27T23:33:41.416Z,101977.22
2023-03-27T23:36:22.946Z,101981.66
2023-03-27T23:38:51.491Z,101979.94
2023-03-27T23:41:18.314Z,101983.66
2023-03-27T23:43:45.387Z,101981.94
2023-03-27T23:46:12.628Z,101984.78
2023-03-27T23:48:41.232Z,101985.91
2023-03-27T23:51:08.681Z,101988.75
2023-03-27T23:53:36.226Z,101991.59
2023-03-27T23:56:03.173Z,101989.00
2023-03-27T23:58:32.368Z,101988.13
